sensor_id;sensor_type;location;lat;lon;timestamp;pressure;altitude;pressure_sealevel;temperature;humidity
18900;BME280;9582;52.018;6.306;2023-05-18T00:00:46;104406.84;;;5.22;100.00
18900;BME280;9582;52.018;6.306;2023-05-18T00:03:13;104412.72;;;5.16;100.00
18900;BME280;9582;52.018;6.306;2023-05-18T00:05:39;104424.56;;;5.10;100.00
18900;BME280;9582;52.018;6.306;2023-05-18T00:08:07;104427.88;;;5.06;100.00
18900;BME280;9582;52.018;6.306;2023-05-18T00:10:33;104447.00;;;5.08;100.00
18900;BME280;9582;52.018;6.306;2023-05-18T00:13:00;104459.09;;;5.07;100.00
18900;BME280;9582;52.018;6.306;2023-05-18T00:15:27;104469.38;;;5.06;100.00
18900;BME280;9582;52.018;6.306;2023-05-18T00:17:54;104483.13;;;5.03;100.00
18900;BME280;9582;52.018;6.306;2023-05-18T00:20:21;104480.41;;;5.00;100.00
18900;BME280;9582;52.018;6.306;2023-05-18T00:22:51;104482.91;;;4.97;100.00
18900;BME280;9582;52.018;6.306;2023-05-18T00:25:17;104498.31;;;4.93;100.00
18900;BME280;9582;52.018;6.306;2023-05-18T00:27:44;104505.19;;;4.92;100.00
18900;BME280;9582;52.018;6.306;2023-05-18T00:30:11;104510.16;;;4.86;100.00
18900;BME280;9582;52.018;6.306;2023-05-18T00:32:39;104523.88;;;4.84;100.00
18900;BME280;9582;52.018;6.306;2023-05-18T00:35:06;104534.25;;;4.84;100.00
18900;BME280;9582;52.018;6.306;2023-05-18T00:37:33;104538.44;;;4.80;100.00
18900;BME280;9582;52.018;6.306;2023-05-18T00:39:59;104553.06;;;4.78;100.00
18900;BME280;9582;52.018;6.306;2023-05-18T00:42:26;104579.16;;;4.83;100.00
18900;BME280;9582;52.018;6.306;2023-05-18T00:44:52;104585.19;;;4.82;100.00
18900;BME280;9582;52.018;6.306;2023-05-18T00:47:19;104595.50;;;4.80;100.00
18900;BME280;9582;52.018;6.306;2023-05-18T00:49:47;104599.69;;;4.77;100.00
18900;BME280;9582;52.018;6.306;2023-05-18T00:52:14;104615.19;;;4.75;100.00
18900;BME280;9582;52.018;6.306;2023-05-18T00:54:41;104614.25;;;4.73;100.00
18900;BME280;9582;52.018;6.306;2023-05-18T00:57:08;104621.00;;;4.70;100.00
18900;BME280;9582;52.018;6.306;2023-05-18T00:59:35;104620.75;;;4.63;100.00
18900;BME280;9582;52.018;6.306;2023-05-18T01:02:02;104628.34;;;4.59;100.00
18900;BME280;9582;52.018;6.306;2023-05-18T01:04:28;104632.47;;;4.54;100.00
18900;BME280;9582;52.018;6.306;2023-05-18T01:06:57;104633.16;;;4.50;100.00
18900;BME280;9582;52.018;6.306;2023-05-18T01:09:31;104640.75;;;4.45;100.00
18900;BME280;9582;52.018;6.306;2023-05-18T01:12:02;104659.66;;;4.43;100.00
18900;BME280;9582;52.018;6.306;2023-05-18T01:14:33;104664.59;;;4.37;100.00
18900;BME280;9582;52.018;6.306;2023-05-18T01:17:07;104682.47;;;4.31;100.00
18900;BME280;9582;52.018;6.306;2023-05-18T01:22:48;104726.41;;;4.29;100.00
18900;BME280;9582;52.018;6.306;2023-05-18T01:25:18;104731.38;;;4.23;100.00
18900;BME280;9582;52.018;6.306;2023-05-18T01:27:50;104760.47;;;4.18;100.00
18900;BME280;9582;52.018;6.306;2023-05-18T01:30:16;104780.97;;;4.13;100.00
18900;BME280;9582;52.018;6.306;2023-05-18T01:32:44;104807.44;;;4.06;100.00
18900;BME280;9582;52.018;6.306;2023-05-18T01:35:11;104831.56;;;4.05;100.00
18900;BME280;9582;52.018;6.306;2023-05-18T01:37:37;104833.34;;;4.06;100.00
18900;BME280;9582;52.018;6.306;2023-05-18T01:40:06;104835.94;;;4.06;100.00
18900;BME280;9582;52.018;6.306;2023-05-18T01:42:36;104848.00;;;4.05;100.00
18900;BME280;9582;52.018;6.306;2023-05-18T01:45:08;104866.28;;;4.08;100.00
18900;BME280;9582;52.018;6.306;2023-05-18T01:47:40;104874.19;;;4.12;100.00
18900;BME280;9582;52.018;6.306;2023-05-18T01:50:12;104887.94;;;4.11;100.00
18900;BME280;9582;52.018;6.306;2023-05-18T01:52:43;104896.06;;;4.18;100.00
18900;BME280;9582;52.018;6.306;2023-05-18T01:55:13;104898.78;;;4.21;100.00
18900;BME280;9582;52.018;6.306;2023-05-18T01:57:41;104934.25;;;4.22;100.00
18900;BME280;9582;52.018;6.306;2023-05-18T02:00:11;104963.66;;;4.23;100.00
18900;BME280;9582;52.018;6.306;2023-05-18T02:02:45;105074.09;;;4.21;100.00
18900;BME280;9582;52.018;6.306;2023-05-18T02:05:14;105115.63;;;4.22;100.00
18900;BME280;9582;52.018;6.306;2023-05-18T02:07:41;105124.38;;;4.24;100.00
18900;BME280;9582;52.018;6.306;2023-05-18T02:10:12;105133.78;;;4.22;100.00
18900;BME280;9582;52.018;6.306;2023-05-18T02:12:39;105291.75;;;4.21;100.00
18900;BME280;9582;52.018;6.306;2023-05-18T02:15:06;105313.53;;;4.24;100.00
18900;BME280;9582;52.018;6.306;2023-05-18T02:17:35;105332.50;;;4.23;100.00
18900;BME280;9582;52.018;6.306;2023-05-18T02:20:02;105355.81;;;4.23;100.00
18900;BME280;9582;52.018;6.306;2023-05-18T02:22:31;105359.13;;;4.21;100.00
18900;BME280;9582;52.018;6.306;2023-05-18T02:24:57;105369.41;;;4.19;100.00
18900;BME280;9582;52.018;6.306;2023-05-18T02:27:24;105357.97;;;4.16;100.00
18900;BME280;9582;52.018;6.306;2023-05-18T02:29:51;105362.19;;;4.14;100.00
18900;BME280;9582;52.018;6.306;2023-05-18T02:32:17;105360.34;;;4.11;100.00
18900;BME280;9582;52.018;6.306;2023-05-18T02:34:45;105360.78;;;4.04;100.00
18900;BME280;9582;52.018;6.306;2023-05-18T02:37:14;105365.81;;;4.01;100.00
18900;BME280;9582;52.018;6.306;2023-05-18T02:39:41;105370.03;;;3.99;100.00
18900;BME280;9582;52.018;6.306;2023-05-18T02:42:07;105400.94;;;3.96;100.00
18900;BME280;9582;52.018;6.306;2023-05-18T02:44:34;105406.66;;;3.90;100.00
18900;BME280;9582;52.018;6.306;2023-05-18T02:47:00;105409.81;;;3.85;100.00
18900;BME280;9582;52.018;6.306;2023-05-18T02:49:27;105406.97;;;3.80;100.00
18900;BME280;9582;52.018;6.306;2023-05-18T02:51:55;105418.06;;;3.78;100.00
18900;BME280;9582;52.018;6.306;2023-05-18T02:54:21;105421.34;;;3.75;100.00
18900;BME280;9582;52.018;6.306;2023-05-18T02:56:48;105428.66;;;3.68;100.00
18900;BME280;9582;52.018;6.306;2023-05-18T02:59:29;105468.16;;;3.64;100.00
18900;BME280;9582;52.018;6.306;2023-05-18T03:01:57;105483.56;;;3.62;100.00
18900;BME280;9582;52.018;6.306;2023-05-18T03:04:23;105489.59;;;3.61;100.00
18900;BME280;9582;52.018;6.306;2023-05-18T03:06:54;105493.03;;;3.62;100.00
18900;BME280;9582;52.018;6.306;2023-05-18T03:09:22;105510.38;;;3.63;100.00
18900;BME280;9582;52.018;6.306;2023-05-18T03:11:50;105549.19;;;3.63;100.00
18900;BME280;9582;52.018;6.306;2023-05-18T03:14:17;105561.53;;;3.67;100.00
18900;BME280;9582;52.018;6.306;2023-05-18T03:16:44;105574.47;;;3.67;100.00
18900;BME280;9582;52.018;6.306;2023-05-18T03:19:13;105571.78;;;3.65;100.00
18900;BME280;9582;52.018;6.306;2023-05-18T03:21:40;105577.88;;;3.66;100.00
18900;BME280;9582;52.018;6.306;2023-05-18T03:24:08;105572.69;;;3.66;100.00
18900;BME280;9582;52.018;6.306;2023-05-18T03:26:38;105581.25;;;3.65;100.00
18900;BME280;9582;52.018;6.306;2023-05-18T03:29:06;105586.22;;;3.62;100.00
18900;BME280;9582;52.018;6.306;2023-05-18T03:31:32;105592.06;;;3.58;100.00
18900;BME280;9582;52.018;6.306;2023-05-18T03:34:01;105618.53;;;3.54;100.00
18900;BME280;9582;52.018;6.306;2023-05-18T03:36:27;105636.78;;;3.55;100.00
18900;BME280;9582;52.018;6.306;2023-05-18T03:38:54;105651.41;;;3.55;100.00
18900;BME280;9582;52.018;6.306;2023-05-18T03:41:22;105656.38;;;3.52;100.00
18900;BME280;9582;52.018;6.306;2023-05-18T03:43:51;105652.72;;;3.48;100.00
18900;BME280;9582;52.018;6.306;2023-05-18T03:46:18;105660.66;;;3.51;100.00
18900;BME280;9582;52.018;6.306;2023-05-18T03:48:44;105659.97;;;3.54;100.00
18900;BME280;9582;52.018;6.306;2023-05-18T03:51:13;105679.97;;;3.56;100.00
18900;BME280;9582;52.018;6.306;2023-05-18T03:53:40;105695.69;;;3.59;100.00
18900;BME280;9582;52.018;6.306;2023-05-18T03:56:07;105702.03;;;3.64;100.00
18900;BME280;9582;52.018;6.306;2023-05-18T03:58:35;105720.91;;;3.76;100.00
18900;BME280;9582;52.018;6.306;2023-05-18T04:01:01;105724.78;;;3.83;100.00
18900;BME280;9582;52.018;6.306;2023-05-18T04:03:28;105730.44;;;3.90;100.00
18900;BME280;9582;52.018;6.306;2023-05-18T04:05:55;105736.88;;;3.97;100.00
18900;BME280;9582;52.018;6.306;2023-05-18T04:08:22;105738.25;;;4.05;100.00
18900;BME280;9582;52.018;6.306;2023-05-18T04:10:50;105747.28;;;4.12;100.00
18900;BME280;9582;52.018;6.306;2023-05-18T04:13:17;105746.66;;;4.16;100.00
18900;BME280;9582;52.018;6.306;2023-05-18T04:15:45;105741.97;;;4.23;100.00
18900;BME280;9582;52.018;6.306;2023-05-18T04:18:12;105740.72;;;4.31;100.00
18900;BME280;9582;52.018;6.306;2023-05-18T04:20:40;105732.28;;;4.35;100.00
18900;BME280;9582;52.018;6.306;2023-05-18T04:23:10;105748.84;;;4.37;100.00
18900;BME280;9582;52.018;6.306;2023-05-18T04:25:37;105750.72;;;4.40;100.00
18900;BME280;9582;52.018;6.306;2023-05-18T04:28:06;105760.56;;;4.45;100.00
18900;BME280;9582;52.018;6.306;2023-05-18T04:30:32;105759.03;;;4.49;100.00
18900;BME280;9582;52.018;6.306;2023-05-18T04:33:01;105761.00;;;4.53;100.00
18900;BME280;9582;52.018;6.306;2023-05-18T04:35:28;105766.56;;;4.59;100.00
18900;BME280;9582;52.018;6.306;2023-05-18T04:37:55;105771.47;;;4.69;100.00
18900;BME280;9582;52.018;6.306;2023-05-18T04:40:22;105776.47;;;4.81;100.00
18900;BME280;9582;52.018;6.306;2023-05-18T04:42:49;105772.56;;;4.87;100.00
18900;BME280;9582;52.018;6.306;2023-05-18T04:45:19;105777.38;;;4.96;100.00
18900;BME280;9582;52.018;6.306;2023-05-18T04:47:48;105783.91;;;5.04;100.00
18900;BME280;9582;52.018;6.306;2023-05-18T04:50:19;105781.81;;;5.13;100.00
18900;BME280;9582;52.018;6.306;2023-05-18T04:52:49;105792.09;;;5.26;100.00
18900;BME280;9582;52.018;6.306;2023-05-18T04:55:19;105790.91;;;5.36;100.00
18900;BME280;9582;52.018;6.306;2023-05-18T04:57:51;105787.03;;;5.44;100.00
18900;BME280;9582;52.018;6.306;2023-05-18T05:00:20;105776.81;;;5.47;100.00
18900;BME280;9582;52.018;6.306;2023-05-18T05:02:48;105770.97;;;5.51;100.00
18900;BME280;9582;52.018;6.306;2023-05-18T05:05:15;105756.28;;;5.51;100.00
18900;BME280;9582;52.018;6.306;2023-05-18T05:07:43;105753.06;;;5.55;100.00
18900;BME280;9582;52.018;6.306;2023-05-18T05:10:09;105736.75;;;5.58;100.00
18900;BME280;9582;52.018;6.306;2023-05-18T05:12:36;105721.56;;;5.65;100.00
18900;BME280;9582;52.018;6.306;2023-05-18T05:15:05;105715.16;;;5.75;100.00
18900;BME280;9582;52.018;6.306;2023-05-18T05:17:31;105702.50;;;5.81;100.00
18900;BME280;9582;52.018;6.306;2023-05-18T05:19:58;105686.84;;;5.96;100.00
18900;BME280;9582;52.018;6.306;2023-05-18T05:22:24;105682.59;;;6.14;100.00
18900;BME280;9582;52.018;6.306;2023-05-18T05:24:52;105664.06;;;6.42;100.00
18900;BME280;9582;52.018;6.306;2023-05-18T05:27:19;105665.56;;;6.89;100.00
18900;BME280;9582;52.018;6.306;2023-05-18T05:29:47;105632.81;;;7.31;100.00
18900;BME280;9582;52.018;6.306;2023-05-18T05:32:15;105597.28;;;7.72;100.00
18900;BME280;9582;52.018;6.306;2023-05-18T05:34:42;105521.72;;;7.92;100.00
18900;BME280;9582;52.018;6.306;2023-05-18T05:37:11;105393.56;;;8.04;100.00
18900;BME280;9582;52.018;6.306;2023-05-18T05:39:38;105205.75;;;8.26;100.00
18900;BME280;9582;52.018;6.306;2023-05-18T05:42:07;105082.13;;;8.46;100.00
18900;BME280;9582;52.018;6.306;2023-05-18T05:44:33;104991.19;;;8.58;100.00
18900;BME280;9582;52.018;6.306;2023-05-18T05:47:01;104902.72;;;8.67;100.00
18900;BME280;9582;52.018;6.306;2023-05-18T05:49:30;104802.19;;;8.82;100.00
18900;BME280;9582;52.018;6.306;2023-05-18T05:51:56;104714.06;;;9.07;100.00
18900;BME280;9582;52.018;6.306;2023-05-18T05:54:23;104662.00;;;9.13;100.00
18900;BME280;9582;52.018;6.306;2023-05-18T05:56:50;104604.81;;;9.25;100.00
18900;BME280;9582;52.018;6.306;2023-05-18T05:59:18;104548.50;;;9.40;100.00
18900;BME280;9582;52.018;6.306;2023-05-18T06:01:46;104502.81;;;9.66;100.00
18900;BME280;9582;52.018;6.306;2023-05-18T06:04:13;104448.03;;;9.72;100.00
18900;BME280;9582;52.018;6.306;2023-05-18T06:06:42;104372.28;;;9.73;100.00
18900;BME280;9582;52.018;6.306;2023-05-18T06:09:10;104239.13;;;9.84;100.00
18900;BME280;9582;52.018;6.306;2023-05-18T06:11:37;104169.50;;;9.94;100.00
18900;BME280;9582;52.018;6.306;2023-05-18T06:14:04;104108.63;;;10.05;100.00
18900;BME280;9582;52.018;6.306;2023-05-18T06:16:33;104066.28;;;10.44;100.00
18900;BME280;9582;52.018;6.306;2023-05-18T06:18:59;104001.78;;;10.49;100.00
18900;BME280;9582;52.018;6.306;2023-05-18T06:21:26;103939.72;;;10.27;100.00
18900;BME280;9582;52.018;6.306;2023-05-18T06:23:53;103888.16;;;10.12;100.00
18900;BME280;9582;52.018;6.306;2023-05-18T06:26:36;103857.72;;;10.20;100.00
18900;BME280;9582;52.018;6.306;2023-05-18T06:29:03;103797.63;;;10.29;100.00
18900;BME280;9582;52.018;6.306;2023-05-18T06:31:52;103760.16;;;10.50;100.00
18900;BME280;9582;52.018;6.306;2023-05-18T06:34:27;103719.16;;;10.40;100.00
18900;BME280;9582;52.018;6.306;2023-05-18T06:36:53;103673.78;;;10.27;100.00
18900;BME280;9582;52.018;6.306;2023-05-18T06:39:20;103624.91;;;10.11;100.00
18900;BME280;9582;52.018;6.306;2023-05-18T06:41:47;103607.50;;;10.12;100.00
18900;BME280;9582;52.018;6.306;2023-05-18T06:44:20;103593.59;;;10.14;100.00
18900;BME280;9582;52.018;6.306;2023-05-18T06:47:06;103559.59;;;10.17;100.00
18900;BME280;9582;52.018;6.306;2023-05-18T06:49:33;103567.41;;;10.11;100.00
18900;BME280;9582;52.018;6.306;2023-05-18T06:51:59;103533.41;;;9.87;100.00
18900;BME280;9582;52.018;6.306;2023-05-18T06:54:26;103531.66;;;10.03;100.00
18900;BME280;9582;52.018;6.306;2023-05-18T06:56:53;103537.78;;;10.27;100.00
18900;BME280;9582;52.018;6.306;2023-05-18T06:59:20;103509.94;;;10.16;100.00
18900;BME280;9582;52.018;6.306;2023-05-18T07:01:47;103495.09;;;10.34;100.00
18900;BME280;9582;52.018;6.306;2023-05-18T07:04:16;103492.44;;;10.53;100.00
18900;BME280;9582;52.018;6.306;2023-05-18T07:06:43;103461.03;;;10.60;100.00
18900;BME280;9582;52.018;6.306;2023-05-18T07:09:10;103436.59;;;10.57;100.00
18900;BME280;9582;52.018;6.306;2023-05-18T07:11:36;103455.69;;;10.81;100.00
18900;BME280;9582;52.018;6.306;2023-05-18T07:14:04;103451.31;;;10.94;100.00
18900;BME280;9582;52.018;6.306;2023-05-18T07:16:31;103463.38;;;11.22;100.00
18900;BME280;9582;52.018;6.306;2023-05-18T07:18:57;103423.13;;;11.32;100.00
18900;BME280;9582;52.018;6.306;2023-05-18T07:21:25;103412.63;;;11.40;100.00
18900;BME280;9582;52.018;6.306;2023-05-18T07:23:51;103389.03;;;11.41;100.00
18900;BME280;9582;52.018;6.306;2023-05-18T07:26:18;103373.25;;;11.46;100.00
18900;BME280;9582;52.018;6.306;2023-05-18T07:28:46;103346.97;;;11.58;100.00
18900;BME280;9582;52.018;6.306;2023-05-18T07:31:13;103309.84;;;11.05;100.00
18900;BME280;9582;52.018;6.306;2023-05-18T07:33:40;103310.81;;;10.91;100.00
18900;BME280;9582;52.018;6.306;2023-05-18T07:36:08;103331.69;;;11.02;100.00
18900;BME280;9582;52.018;6.306;2023-05-18T07:38:36;103335.16;;;11.04;100.00
18900;BME280;9582;52.018;6.306;2023-05-18T07:41:02;103332.44;;;11.19;100.00
18900;BME280;9582;52.018;6.306;2023-05-18T07:43:29;103331.28;;;11.52;100.00
18900;BME280;9582;52.018;6.306;2023-05-18T07:45:55;103317.44;;;11.38;100.00
18900;BME280;9582;52.018;6.306;2023-05-18T07:48:22;103287.03;;;11.23;100.00
18900;BME280;9582;52.018;6.306;2023-05-18T07:50:48;103305.91;;;11.58;100.00
18900;BME280;9582;52.018;6.306;2023-05-18T07:53:15;103303.38;;;11.51;100.00
18900;BME280;9582;52.018;6.306;2023-05-18T07:55:43;103281.84;;;11.13;100.00
18900;BME280;9582;52.018;6.306;2023-05-18T07:58:10;103273.34;;;10.82;100.00
18900;BME280;9582;52.018;6.306;2023-05-18T08:00:37;103276.13;;;10.61;100.00
18900;BME280;9582;52.018;6.306;2023-05-18T08:03:03;103275.16;;;10.71;100.00
18900;BME280;9582;52.018;6.306;2023-05-18T08:05:30;103286.50;;;10.70;100.00
18900;BME280;9582;52.018;6.306;2023-05-18T08:07:57;103268.31;;;10.49;100.00
18900;BME280;9582;52.018;6.306;2023-05-18T08:10:24;103297.06;;;10.61;100.00
18900;BME280;9582;52.018;6.306;2023-05-18T08:12:52;103298.69;;;10.80;100.00
18900;BME280;9582;52.018;6.306;2023-05-18T08:15:21;103283.00;;;10.74;100.00
18900;BME280;9582;52.018;6.306;2023-05-18T08:17:47;103266.38;;;10.79;100.00
18900;BME280;9582;52.018;6.306;2023-05-18T08:20:13;103260.34;;;10.71;100.00
18900;BME280;9582;52.018;6.306;2023-05-18T08:22:41;103282.13;;;10.78;100.00
18900;BME280;9582;52.018;6.306;2023-05-18T08:25:08;103263.72;;;10.87;100.00
18900;BME280;9582;52.018;6.306;2023-05-18T08:27:35;103254.13;;;10.89;100.00
18900;BME280;9582;52.018;6.306;2023-05-18T08:30:04;103253.91;;;11.15;100.00
18900;BME280;9582;52.018;6.306;2023-05-18T08:32:31;103232.13;;;11.11;100.00
18900;BME280;9582;52.018;6.306;2023-05-18T08:35:01;103190.19;;;11.13;100.00
18900;BME280;9582;52.018;6.306;2023-05-18T08:37:28;103168.28;;;11.21;100.00
18900;BME280;9582;52.018;6.306;2023-05-18T08:39:55;103152.59;;;11.18;100.00
18900;BME280;9582;52.018;6.306;2023-05-18T08:42:28;103138.84;;;10.99;100.00
18900;BME280;9582;52.018;6.306;2023-05-18T08:45:01;103097.84;;;10.95;100.00
18900;BME280;9582;52.018;6.306;2023-05-18T08:47:35;103090.03;;;10.89;100.00
18900;BME280;9582;52.018;6.306;2023-05-18T08:50:04;103083.91;;;10.93;100.00
18900;BME280;9582;52.018;6.306;2023-05-18T08:52:34;103085.63;;;10.97;100.00
18900;BME280;9582;52.018;6.306;2023-05-18T08:55:04;103074.31;;;10.94;100.00
18900;BME280;9582;52.018;6.306;2023-05-18T08:57:34;103064.78;;;10.88;100.00
18900;BME280;9582;52.018;6.306;2023-05-18T09:00:01;103054.47;;;10.72;100.00
18900;BME280;9582;52.018;6.306;2023-05-18T09:02:29;103064.00;;;10.79;100.00
18900;BME280;9582;52.018;6.306;2023-05-18T09:04:57;103053.53;;;10.79;100.00
18900;BME280;9582;52.018;6.306;2023-05-18T09:07:25;103054.13;;;11.03;100.00
18900;BME280;9582;52.018;6.306;2023-05-18T09:09:54;103061.78;;;11.23;100.00
18900;BME280;9582;52.018;6.306;2023-05-18T09:12:22;103067.03;;;11.23;100.00
18900;BME280;9582;52.018;6.306;2023-05-18T09:14:48;103046.97;;;11.88;100.00
18900;BME280;9582;52.018;6.306;2023-05-18T09:17:16;103024.13;;;11.96;100.00
18900;BME280;9582;52.018;6.306;2023-05-18T09:19:42;103012.72;;;11.98;100.00
18900;BME280;9582;52.018;6.306;2023-05-18T09:22:10;103009.03;;;11.49;100.00
18900;BME280;9582;52.018;6.306;2023-05-18T09:24:37;103010.00;;;11.42;100.00
18900;BME280;9582;52.018;6.306;2023-05-18T09:27:04;103019.69;;;11.35;100.00
18900;BME280;9582;52.018;6.306;2023-05-18T09:29:30;103014.94;;;11.65;100.00
18900;BME280;9582;52.018;6.306;2023-05-18T09:32:01;103012.56;;;11.46;100.00
18900;BME280;9582;52.018;6.306;2023-05-18T09:34:38;103016.97;;;11.44;100.00
18900;BME280;9582;52.018;6.306;2023-05-18T09:37:05;103023.91;;;11.48;100.00
18900;BME280;9582;52.018;6.306;2023-05-18T09:39:32;103010.81;;;11.48;100.00
18900;BME280;9582;52.018;6.306;2023-05-18T09:42:01;103014.38;;;11.41;100.00
18900;BME280;9582;52.018;6.306;2023-05-18T09:44:30;103014.94;;;11.63;100.00
18900;BME280;9582;52.018;6.306;2023-05-18T09:46:57;103001.47;;;11.89;100.00
18900;BME280;9582;52.018;6.306;2023-05-18T09:49:23;102997.84;;;11.99;100.00
18900;BME280;9582;52.018;6.306;2023-05-18T09:51:50;103001.44;;;11.92;100.00
18900;BME280;9582;52.018;6.306;2023-05-18T09:54:17;102993.47;;;11.98;100.00
18900;BME280;9582;52.018;6.306;2023-05-18T09:56:45;102993.34;;;12.07;100.00
18900;BME280;9582;52.018;6.306;2023-05-18T09:59:13;102994.03;;;12.16;100.00
18900;BME280;9582;52.018;6.306;2023-05-18T10:01:54;103004.72;;;12.06;100.00
18900;BME280;9582;52.018;6.306;2023-05-18T10:04:21;103006.94;;;12.29;100.00
18900;BME280;9582;52.018;6.306;2023-05-18T10:06:48;103017.09;;;12.50;100.00
18900;BME280;9582;52.018;6.306;2023-05-18T10:09:15;103023.75;;;12.67;100.00
18900;BME280;9582;52.018;6.306;2023-05-18T10:11:42;103025.91;;;12.92;100.00
18900;BME280;9582;52.018;6.306;2023-05-18T10:14:11;103023.03;;;13.05;100.00
18900;BME280;9582;52.018;6.306;2023-05-18T10:16:39;103030.69;;;13.17;100.00
18900;BME280;9582;52.018;6.306;2023-05-18T10:19:07;103037.19;;;13.41;100.00
18900;BME280;9582;52.018;6.306;2023-05-18T10:21:36;103038.75;;;13.51;100.00
18900;BME280;9582;52.018;6.306;2023-05-18T10:24:04;103042.13;;;13.56;100.00
18900;BME280;9582;52.018;6.306;2023-05-18T10:26:34;103046.41;;;13.19;100.00
18900;BME280;9582;52.018;6.306;2023-05-18T10:29:03;103057.84;;;13.18;100.00
18900;BME280;9582;52.018;6.306;2023-05-18T10:31:31;103102.97;;;12.91;100.00
18900;BME280;9582;52.018;6.306;2023-05-18T10:34:02;103098.09;;;12.69;100.00
18900;BME280;9582;52.018;6.306;2023-05-18T10:36:30;103131.22;;;12.78;100.00
18900;BME280;9582;52.018;6.306;2023-05-18T10:38:58;103153.88;;;12.82;100.00
18900;BME280;9582;52.018;6.306;2023-05-18T10:41:25;103152.72;;;13.47;100.00
18900;BME280;9582;52.018;6.306;2023-05-18T10:43:53;103170.28;;;13.45;100.00
18900;BME280;9582;52.018;6.306;2023-05-18T10:46:26;103191.03;;;13.13;100.00
18900;BME280;9582;52.018;6.306;2023-05-18T10:48:56;103179.91;;;12.97;100.00
18900;BME280;9582;52.018;6.306;2023-05-18T10:51:25;103199.09;;;13.01;100.00
18900;BME280;9582;52.018;6.306;2023-05-18T10:53:52;103190.31;;;13.02;100.00
18900;BME280;9582;52.018;6.306;2023-05-18T10:56:19;103152.28;;;13.25;100.00
18900;BME280;9582;52.018;6.306;2023-05-18T10:58:46;103124.34;;;13.20;100.00
18900;BME280;9582;52.018;6.306;2023-05-18T11:01:14;103117.47;;;13.57;100.00
18900;BME280;9582;52.018;6.306;2023-05-18T11:03:41;103120.69;;;13.70;100.00
18900;BME280;9582;52.018;6.306;2023-05-18T11:06:10;103110.28;;;13.65;100.00
18900;BME280;9582;52.018;6.306;2023-05-18T11:08:46;103112.22;;;13.57;100.00
18900;BME280;9582;52.018;6.306;2023-05-18T11:11:13;103113.63;;;13.72;100.00
18900;BME280;9582;52.018;6.306;2023-05-18T11:13:43;103101.47;;;14.06;100.00
18900;BME280;9582;52.018;6.306;2023-05-18T11:16:10;103093.75;;;13.99;100.00
18900;BME280;9582;52.018;6.306;2023-05-18T11:18:42;103057.91;;;13.56;100.00
18900;BME280;9582;52.018;6.306;2023-05-18T11:21:32;103040.22;;;13.21;100.00
18900;BME280;9582;52.018;6.306;2023-05-18T11:24:23;103032.34;;;13.21;100.00
18900;BME280;9582;52.018;6.306;2023-05-18T11:26:52;103032.03;;;13.37;100.00
18900;BME280;9582;52.018;6.306;2023-05-18T11:29:21;102997.06;;;13.35;100.00
18900;BME280;9582;52.018;6.306;2023-05-18T11:31:49;102976.53;;;13.50;100.00
18900;BME280;9582;52.018;6.306;2023-05-18T11:34:49;102975.72;;;13.48;100.00
18900;BME280;9582;52.018;6.306;2023-05-18T11:37:47;102980.31;;;13.77;100.00
18900;BME280;9582;52.018;6.306;2023-05-18T11:40:43;102968.31;;;13.65;100.00
18900;BME280;9582;52.018;6.306;2023-05-18T11:43:16;102974.78;;;13.87;100.00
18900;BME280;9582;52.018;6.306;2023-05-18T11:45:51;102954.78;;;13.80;100.00
18900;BME280;9582;52.018;6.306;2023-05-18T11:48:20;102946.38;;;14.02;100.00
18900;BME280;9582;52.018;6.306;2023-05-18T11:50:46;102951.34;;;14.14;100.00
18900;BME280;9582;52.018;6.306;2023-05-18T11:53:15;102971.44;;;14.16;100.00
18900;BME280;9582;52.018;6.306;2023-05-18T11:55:42;102948.41;;;13.91;100.00
18900;BME280;9582;52.018;6.306;2023-05-18T11:58:10;102935.25;;;13.91;100.00
18900;BME280;9582;52.018;6.306;2023-05-18T12:00:43;102926.56;;;13.87;100.00
18900;BME280;9582;52.018;6.306;2023-05-18T12:03:11;102906.69;;;13.75;100.00
18900;BME280;9582;52.018;6.306;2023-05-18T12:05:38;102901.06;;;13.91;100.00
18900;BME280;9582;52.018;6.306;2023-05-18T12:08:06;102894.56;;;13.71;100.00
18900;BME280;9582;52.018;6.306;2023-05-18T12:10:36;102882.50;;;13.63;100.00
18900;BME280;9582;52.018;6.306;2023-05-18T12:13:03;102887.41;;;13.75;100.00
18900;BME280;9582;52.018;6.306;2023-05-18T12:15:30;102874.06;;;13.84;100.00
18900;BME280;9582;52.018;6.306;2023-05-18T12:17:57;102877.66;;;14.14;100.00
18900;BME280;9582;52.018;6.306;2023-05-18T12:20:24;102879.50;;;14.10;100.00
18900;BME280;9582;52.018;6.306;2023-05-18T12:22:52;102878.94;;;13.98;100.00
18900;BME280;9582;52.018;6.306;2023-05-18T12:25:19;102867.47;;;14.00;100.00
18900;BME280;9582;52.018;6.306;2023-05-18T12:27:50;102864.16;;;14.26;100.00
18900;BME280;9582;52.018;6.306;2023-05-18T12:30:17;102859.56;;;14.34;100.00
18900;BME280;9582;52.018;6.306;2023-05-18T12:32:45;102851.63;;;14.35;100.00
18900;BME280;9582;52.018;6.306;2023-05-18T12:35:12;102846.66;;;14.25;100.00
18900;BME280;9582;52.018;6.306;2023-05-18T12:37:42;102842.13;;;14.30;100.00
18900;BME280;9582;52.018;6.306;2023-05-18T12:40:09;102842.22;;;14.58;100.00
18900;BME280;9582;52.018;6.306;2023-05-18T12:42:36;102849.75;;;14.70;100.00
18900;BME280;9582;52.018;6.306;2023-05-18T12:45:06;102848.19;;;14.64;100.00
18900;BME280;9582;52.018;6.306;2023-05-18T12:47:39;102855.63;;;14.49;100.00
18900;BME280;9582;52.018;6.306;2023-05-18T12:50:06;102849.97;;;14.62;100.00
18900;BME280;9582;52.018;6.306;2023-05-18T12:52:33;102846.25;;;14.69;100.00
18900;BME280;9582;52.018;6.306;2023-05-18T12:55:00;102851.66;;;14.94;100.00
18900;BME280;9582;52.018;6.306;2023-05-18T12:57:27;102862.97;;;14.97;100.00
18900;BME280;9582;52.018;6.306;2023-05-18T12:59:55;102853.84;;;15.08;100.00
18900;BME280;9582;52.018;6.306;2023-05-18T13:02:31;102851.06;;;15.40;100.00
18900;BME280;9582;52.018;6.306;2023-05-18T13:05:03;102836.69;;;15.50;100.00